sensor_id;sensor_type;location;lat;lon;timestamp;P1;durP1;ratioP1;P2;durP2;ratioP2
12120;SDS011;6124;59.460;17.908;2022-09-30T00:01:52;1.73;;;1.60;;
12120;SDS011;6124;59.460;17.908;2022-09-30T00:04:20;3.27;;;1.73;;
12120;SDS011;6124;59.460;17.908;2022-09-30T00:06:48;2.53;;;1.80;;
12120;SDS011;6124;59.460;17.908;2022-09-30T00:09:15;1.80;;;1.70;;
12120;SDS011;6124;59.460;17.908;2022-09-30T00:11:43;2.13;;;1.70;;
12120;SDS011;6124;59.460;17.908;2022-09-30T00:14:13;2.07;;;1.83;;
12120;SDS011;6124;59.460;17.908;2022-09-30T00:16:41;2.10;;;1.80;;
12120;SDS011;6124;59.460;17.908;2022-09-30T00:19:08;2.00;;;1.80;;
12120;SDS011;6124;59.460;17.908;2022-09-30T00:21:36;8.07;;;2.10;;
12120;SDS011;6124;59.460;17.908;2022-09-30T00:24:03;2.87;;;2.00;;
12120;SDS011;6124;59.460;17.908;2022-09-30T00:26:31;3.17;;;1.60;;
12120;SDS011;6124;59.460;17.908;2022-09-30T00:28:59;2.77;;;1.80;;
12120;SDS011;6124;59.460;17.908;2022-09-30T00:31:29;2.00;;;1.70;;
12120;SDS011;6124;59.460;17.908;2022-09-30T00:33:56;2.30;;;1.67;;
12120;SDS011;6124;59.460;17.908;2022-09-30T00:36:37;2.00;;;1.80;;
12120;SDS011;6124;59.460;17.908;2022-09-30T00:39:05;2.63;;;2.23;;
12120;SDS011;6124;59.460;17.908;2022-09-30T00:41:32;2.00;;;1.60;;
12120;SDS011;6124;59.460;17.908;2022-09-30T00:44:00;1.60;;;1.50;;
12120;SDS011;6124;59.460;17.908;2022-09-30T00:46:31;2.03;;;1.70;;
12120;SDS011;6124;59.460;17.908;2022-09-30T00:48:59;2.47;;;1.80;;
12120;SDS011;6124;59.460;17.908;2022-09-30T00:51:28;3.23;;;1.70;;
12120;SDS011;6124;59.460;17.908;2022-09-30T00:53:58;2.17;;;1.67;;
12120;SDS011;6124;59.460;17.908;2022-09-30T00:56:28;2.23;;;1.50;;
12120;SDS011;6124;59.460;17.908;2022-09-30T00:58:58;3.33;;;2.33;;
12120;SDS011;6124;59.460;17.908;2022-09-30T01:01:27;3.20;;;2.03;;
12120;SDS011;6124;59.460;17.908;2022-09-30T01:03:57;1.90;;;1.70;;
12120;SDS011;6124;59.460;17.908;2022-09-30T01:06:26;2.00;;;1.80;;
12120;SDS011;6124;59.460;17.908;2022-09-30T01:08:53;2.07;;;1.70;;
12120;SDS011;6124;59.460;17.908;2022-09-30T01:11:22;2.53;;;2.03;;
12120;SDS011;6124;59.460;17.908;2022-09-30T01:13:51;2.53;;;1.90;;
12120;SDS011;6124;59.460;17.908;2022-09-30T01:16:25;1.80;;;1.70;;
12120;SDS011;6124;59.460;17.908;2022-09-30T01:18:59;2.57;;;1.90;;
12120;SDS011;6124;59.460;17.908;2022-09-30T01:21:40;2.00;;;1.73;;
12120;SDS011;6124;59.460;17.908;2022-09-30T01:24:13;1.93;;;1.70;;
12120;SDS011;6124;59.460;17.908;2022-09-30T01:29:46;3.07;;;1.70;;
12120;SDS011;6124;59.460;17.908;2022-09-30T01:32:18;2.57;;;1.70;;
12120;SDS011;6124;59.460;17.908;2022-09-30T01:34:51;3.90;;;1.73;;
12120;SDS011;6124;59.460;17.908;2022-09-30T01:37:24;4.07;;;1.90;;
12120;SDS011;6124;59.460;17.908;2022-09-30T01:39:57;2.80;;;1.90;;
12120;SDS011;6124;59.460;17.908;2022-09-30T01:42:31;2.63;;;1.80;;
12120;SDS011;6124;59.460;17.908;2022-09-30T01:45:03;3.60;;;2.10;;
12120;SDS011;6124;59.460;17.908;2022-09-30T01:47:35;2.07;;;1.87;;
12120;SDS011;6124;59.460;17.908;2022-09-30T01:50:09;2.03;;;1.83;;
12120;SDS011;6124;59.460;17.908;2022-09-30T01:52:39;2.03;;;1.80;;
12120;SDS011;6124;59.460;17.908;2022-09-30T01:55:10;2.60;;;1.80;;
12120;SDS011;6124;59.460;17.908;2022-09-30T01:57:41;2.60;;;1.60;;
12120;SDS011;6124;59.460;17.908;2022-09-30T02:00:12;2.17;;;1.80;;
12120;SDS011;6124;59.460;17.908;2022-09-30T02:02:43;5.23;;;2.03;;
12120;SDS011;6124;59.460;17.908;2022-09-30T02:05:14;2.83;;;2.00;;
12120;SDS011;6124;59.460;17.908;2022-09-30T02:07:44;2.50;;;1.53;;
12120;SDS011;6124;59.460;17.908;2022-09-30T02:10:13;2.57;;;1.90;;
12120;SDS011;6124;59.460;17.908;2022-09-30T02:12:49;2.93;;;1.60;;
12120;SDS011;6124;59.460;17.908;2022-09-30T02:15:18;2.40;;;1.77;;
12120;SDS011;6124;59.460;17.908;2022-09-30T02:17:49;3.60;;;1.87;;
12120;SDS011;6124;59.460;17.908;2022-09-30T02:20:19;2.90;;;1.93;;
12120;SDS011;6124;59.460;17.908;2022-09-30T02:22:48;3.60;;;1.60;;
12120;SDS011;6124;59.460;17.908;2022-09-30T02:25:18;1.90;;;1.60;;
12120;SDS011;6124;59.460;17.908;2022-09-30T02:27:51;2.30;;;1.80;;
12120;SDS011;6124;59.460;17.908;2022-09-30T02:30:20;2.70;;;2.17;;
12120;SDS011;6124;59.460;17.908;2022-09-30T02:32:50;2.27;;;1.90;;
12120;SDS011;6124;59.460;17.908;2022-09-30T02:35:19;3.30;;;2.00;;
12120;SDS011;6124;59.460;17.908;2022-09-30T02:37:49;2.97;;;1.80;;
12120;SDS011;6124;59.460;17.908;2022-09-30T02:40:20;3.17;;;2.30;;
12120;SDS011;6124;59.460;17.908;2022-09-30T02:42:48;3.47;;;1.97;;
12120;SDS011;6124;59.460;17.908;2022-09-30T02:45:16;3.33;;;1.90;;
12120;SDS011;6124;59.460;17.908;2022-09-30T02:47:48;4.27;;;2.30;;
12120;SDS011;6124;59.460;17.908;2022-09-30T02:50:21;3.03;;;2.07;;
12120;SDS011;6124;59.460;17.908;2022-09-30T02:52:53;2.20;;;1.80;;
12120;SDS011;6124;59.460;17.908;2022-09-30T02:55:25;3.50;;;2.17;;
12120;SDS011;6124;59.460;17.908;2022-09-30T02:57:56;2.10;;;1.60;;
12120;SDS011;6124;59.460;17.908;2022-09-30T03:00:24;4.00;;;2.10;;
12120;SDS011;6124;59.460;17.908;2022-09-30T03:02:52;2.73;;;2.10;;
12120;SDS011;6124;59.460;17.908;2022-09-30T03:05:22;3.73;;;2.10;;
12120;SDS011;6124;59.460;17.908;2022-09-30T03:07:49;3.67;;;2.00;;
12120;SDS011;6124;59.460;17.908;2022-09-30T03:10:17;2.83;;;1.80;;
12120;SDS011;6124;59.460;17.908;2022-09-30T03:12:49;2.20;;;2.00;;
12120;SDS011;6124;59.460;17.908;2022-09-30T03:15:24;4.63;;;2.00;;
12120;SDS011;6124;59.460;17.908;2022-09-30T03:18:01;2.40;;;1.80;;
12120;SDS011;6124;59.460;17.908;2022-09-30T03:20:37;3.57;;;1.90;;
12120;SDS011;6124;59.460;17.908;2022-09-30T03:26:02;2.37;;;1.63;;
12120;SDS011;6124;59.460;17.908;2022-09-30T03:28:33;2.10;;;1.90;;
12120;SDS011;6124;59.460;17.908;2022-09-30T03:31:04;2.30;;;2.07;;
12120;SDS011;6124;59.460;17.908;2022-09-30T03:33:37;3.27;;;1.90;;
12120;SDS011;6124;59.460;17.908;2022-09-30T03:36:08;4.23;;;2.13;;
12120;SDS011;6124;59.460;17.908;2022-09-30T03:38:40;3.33;;;1.80;;
12120;SDS011;6124;59.460;17.908;2022-09-30T03:41:13;2.47;;;2.07;;
12120;SDS011;6124;59.460;17.908;2022-09-30T03:43:43;2.50;;;1.97;;
12120;SDS011;6124;59.460;17.908;2022-09-30T03:46:15;2.50;;;1.73;;
12120;SDS011;6124;59.460;17.908;2022-09-30T03:48:45;3.03;;;2.10;;
12120;SDS011;6124;59.460;17.908;2022-09-30T03:51:15;2.30;;;1.90;;
12120;SDS011;6124;59.460;17.908;2022-09-30T03:53:43;2.13;;;1.90;;
12120;SDS011;6124;59.460;17.908;2022-09-30T03:56:11;3.90;;;2.30;;
12120;SDS011;6124;59.460;17.908;2022-09-30T03:58:39;2.47;;;2.00;;
12120;SDS011;6124;59.460;17.908;2022-09-30T04:01:08;2.33;;;1.80;;
12120;SDS011;6124;59.460;17.908;2022-09-30T04:03:38;2.97;;;2.13;;
12120;SDS011;6124;59.460;17.908;2022-09-30T04:06:07;2.60;;;2.10;;
12120;SDS011;6124;59.460;17.908;2022-09-30T04:08:36;3.30;;;2.43;;
12120;SDS011;6124;59.460;17.908;2022-09-30T04:11:03;4.20;;;2.10;;
12120;SDS011;6124;59.460;17.908;2022-09-30T04:13:30;2.80;;;2.27;;
12120;SDS011;6124;59.460;17.908;2022-09-30T04:15:58;3.27;;;2.27;;
12120;SDS011;6124;59.460;17.908;2022-09-30T04:18:25;2.70;;;2.37;;
12120;SDS011;6124;59.460;17.908;2022-09-30T04:20:55;9.33;;;2.67;;
12120;SDS011;6124;59.460;17.908;2022-09-30T04:23:23;2.37;;;2.00;;
12120;SDS011;6124;59.460;17.908;2022-09-30T04:25:52;2.27;;;2.07;;
12120;SDS011;6124;59.460;17.908;2022-09-30T04:28:19;2.83;;;2.53;;
12120;SDS011;6124;59.460;17.908;2022-09-30T04:30:47;3.67;;;2.23;;
12120;SDS011;6124;59.460;17.908;2022-09-30T04:33:14;6.10;;;2.23;;
12120;SDS011;6124;59.460;17.908;2022-09-30T04:35:41;2.10;;;1.90;;
12120;SDS011;6124;59.460;17.908;2022-09-30T04:38:09;3.27;;;2.33;;
12120;SDS011;6124;59.460;17.908;2022-09-30T04:40:36;2.57;;;2.33;;
12120;SDS011;6124;59.460;17.908;2022-09-30T04:43:05;3.73;;;2.30;;
12120;SDS011;6124;59.460;17.908;2022-09-30T04:45:33;3.63;;;2.50;;
12120;SDS011;6124;59.460;17.908;2022-09-30T04:48:00;2.87;;;2.20;;
12120;SDS011;6124;59.460;17.908;2022-09-30T04:50:27;4.30;;;2.77;;
12120;SDS011;6124;59.460;17.908;2022-09-30T04:52:55;3.93;;;2.30;;
12120;SDS011;6124;59.460;17.908;2022-09-30T04:55:22;3.70;;;2.53;;
12120;SDS011;6124;59.460;17.908;2022-09-30T04:57:49;3.67;;;2.73;;
12120;SDS011;6124;59.460;17.908;2022-09-30T05:00:18;3.43;;;2.50;;
12120;SDS011;6124;59.460;17.908;2022-09-30T05:02:45;3.10;;;2.40;;
12120;SDS011;6124;59.460;17.908;2022-09-30T05:05:13;3.20;;;2.53;;
12120;SDS011;6124;59.460;17.908;2022-09-30T05:07:40;3.70;;;2.50;;
12120;SDS011;6124;59.460;17.908;2022-09-30T05:10:08;3.50;;;2.40;;
12120;SDS011;6124;59.460;17.908;2022-09-30T05:12:35;3.20;;;2.50;;
12120;SDS011;6124;59.460;17.908;2022-09-30T05:15:03;3.13;;;2.40;;
12120;SDS011;6124;59.460;17.908;2022-09-30T05:17:31;2.50;;;2.30;;
12120;SDS011;6124;59.460;17.908;2022-09-30T05:19:59;4.47;;;2.47;;
12120;SDS011;6124;59.460;17.908;2022-09-30T05:22:27;3.37;;;2.50;;
12120;SDS011;6124;59.460;17.908;2022-09-30T05:24:54;4.10;;;2.77;;
12120;SDS011;6124;59.460;17.908;2022-09-30T05:27:21;3.40;;;2.60;;
12120;SDS011;6124;59.460;17.908;2022-09-30T05:29:49;4.80;;;2.77;;
12120;SDS011;6124;59.460;17.908;2022-09-30T05:32:16;4.80;;;3.20;;
12120;SDS011;6124;59.460;17.908;2022-09-30T05:34:46;3.47;;;2.70;;
12120;SDS011;6124;59.460;17.908;2022-09-30T05:37:14;6.97;;;2.60;;
12120;SDS011;6124;59.460;17.908;2022-09-30T05:39:41;3.57;;;3.10;;
12120;SDS011;6124;59.460;17.908;2022-09-30T05:42:08;3.80;;;2.73;;
12120;SDS011;6124;59.460;17.908;2022-09-30T05:44:36;3.43;;;2.90;;
12120;SDS011;6124;59.460;17.908;2022-09-30T05:47:03;5.13;;;2.97;;
12120;SDS011;6124;59.460;17.908;2022-09-30T05:49:30;4.03;;;2.97;;
12120;SDS011;6124;59.460;17.908;2022-09-30T05:52:00;4.13;;;3.13;;
12120;SDS011;6124;59.460;17.908;2022-09-30T05:54:27;4.60;;;3.00;;
12120;SDS011;6124;59.460;17.908;2022-09-30T05:56:54;3.83;;;2.70;;
12120;SDS011;6124;59.460;17.908;2022-09-30T05:59:22;4.27;;;3.30;;
12120;SDS011;6124;59.460;17.908;2022-09-30T06:01:49;6.07;;;3.60;;
12120;SDS011;6124;59.460;17.908;2022-09-30T06:04:16;4.93;;;3.27;;
12120;SDS011;6124;59.460;17.908;2022-09-30T06:06:43;3.90;;;2.90;;
12120;SDS011;6124;59.460;17.908;2022-09-30T06:09:13;4.03;;;3.27;;
12120;SDS011;6124;59.460;17.908;2022-09-30T06:11:40;3.80;;;2.83;;
12120;SDS011;6124;59.460;17.908;2022-09-30T06:14:07;3.80;;;3.23;;
12120;SDS011;6124;59.460;17.908;2022-09-30T06:16:35;4.33;;;3.33;;
12120;SDS011;6124;59.460;17.908;2022-09-30T06:19:02;5.27;;;4.10;;
12120;SDS011;6124;59.460;17.908;2022-09-30T06:21:30;6.70;;;4.67;;
12120;SDS011;6124;59.460;17.908;2022-09-30T06:23:57;6.20;;;4.33;;
12120;SDS011;6124;59.460;17.908;2022-09-30T06:26:26;6.47;;;4.37;;
12120;SDS011;6124;59.460;17.908;2022-09-30T06:28:53;6.17;;;3.90;;
12120;SDS011;6124;59.460;17.908;2022-09-30T06:31:20;5.33;;;3.70;;
12120;SDS011;6124;59.460;17.908;2022-09-30T06:33:50;3.57;;;3.27;;
12120;SDS011;6124;59.460;17.908;2022-09-30T06:36:18;4.10;;;3.40;;
12120;SDS011;6124;59.460;17.908;2022-09-30T06:38:46;5.13;;;3.37;;
12120;SDS011;6124;59.460;17.908;2022-09-30T06:41:15;6.23;;;3.17;;
12120;SDS011;6124;59.460;17.908;2022-09-30T06:43:44;6.50;;;2.83;;
12120;SDS011;6124;59.460;17.908;2022-09-30T06:46:11;3.10;;;2.80;;
12120;SDS011;6124;59.460;17.908;2022-09-30T06:48:38;4.37;;;2.67;;
12120;SDS011;6124;59.460;17.908;2022-09-30T06:51:06;5.70;;;2.77;;
12120;SDS011;6124;59.460;17.908;2022-09-30T06:53:35;3.60;;;2.40;;
12120;SDS011;6124;59.460;17.908;2022-09-30T06:56:03;3.30;;;2.60;;
12120;SDS011;6124;59.460;17.908;2022-09-30T06:58:30;2.67;;;2.40;;
12120;SDS011;6124;59.460;17.908;2022-09-30T07:00:59;3.30;;;2.70;;
12120;SDS011;6124;59.460;17.908;2022-09-30T07:03:27;3.83;;;2.40;;
12120;SDS011;6124;59.460;17.908;2022-09-30T07:05:57;3.80;;;2.27;;
12120;SDS011;6124;59.460;17.908;2022-09-30T07:08:25;6.27;;;2.70;;
12120;SDS011;6124;59.460;17.908;2022-09-30T07:10:55;4.23;;;2.67;;
12120;SDS011;6124;59.460;17.908;2022-09-30T07:13:22;4.83;;;3.03;;
12120;SDS011;6124;59.460;17.908;2022-09-30T07:15:50;5.17;;;2.40;;
12120;SDS011;6124;59.460;17.908;2022-09-30T07:18:20;3.80;;;2.67;;
12120;SDS011;6124;59.460;17.908;2022-09-30T07:20:48;3.47;;;2.40;;
12120;SDS011;6124;59.460;17.908;2022-09-30T07:23:15;4.93;;;2.80;;
12120;SDS011;6124;59.460;17.908;2022-09-30T07:25:49;4.03;;;2.60;;
12120;SDS011;6124;59.460;17.908;2022-09-30T07:28:17;4.40;;;2.87;;
12120;SDS011;6124;59.460;17.908;2022-09-30T07:30:45;3.47;;;2.70;;
12120;SDS011;6124;59.460;17.908;2022-09-30T07:33:12;5.37;;;2.90;;
12120;SDS011;6124;59.460;17.908;2022-09-30T07:35:42;4.50;;;2.50;;
12120;SDS011;6124;59.460;17.908;2022-09-30T07:38:15;5.03;;;2.50;;
12120;SDS011;6124;59.460;17.908;2022-09-30T07:40:50;2.83;;;2.50;;
12120;SDS011;6124;59.460;17.908;2022-09-30T07:43:17;3.90;;;2.57;;
12120;SDS011;6124;59.460;17.908;2022-09-30T07:45:45;4.77;;;2.57;;
12120;SDS011;6124;59.460;17.908;2022-09-30T07:48:12;4.00;;;2.43;;
12120;SDS011;6124;59.460;17.908;2022-09-30T07:50:55;3.67;;;2.60;;
12120;SDS011;6124;59.460;17.908;2022-09-30T07:53:22;2.73;;;2.53;;
12120;SDS011;6124;59.460;17.908;2022-09-30T07:55:49;3.87;;;2.60;;
12120;SDS011;6124;59.460;17.908;2022-09-30T07:58:17;2.63;;;2.30;;
12120;SDS011;6124;59.460;17.908;2022-09-30T08:00:45;4.73;;;2.53;;
12120;SDS011;6124;59.460;17.908;2022-09-30T08:03:14;2.57;;;2.37;;
12120;SDS011;6124;59.460;17.908;2022-09-30T08:05:42;3.03;;;2.73;;
12120;SDS011;6124;59.460;17.908;2022-09-30T08:08:11;2.70;;;2.50;;
12120;SDS011;6124;59.460;17.908;2022-09-30T08:10:39;3.33;;;2.97;;
12120;SDS011;6124;59.460;17.908;2022-09-30T08:13:06;3.07;;;2.77;;
12120;SDS011;6124;59.460;17.908;2022-09-30T08:15:33;3.73;;;3.00;;
12120;SDS011;6124;59.460;17.908;2022-09-30T08:18:01;4.00;;;2.70;;
12120;SDS011;6124;59.460;17.908;2022-09-30T08:20:28;3.33;;;2.70;;
12120;SDS011;6124;59.460;17.908;2022-09-30T08:22:55;4.23;;;2.70;;
12120;SDS011;6124;59.460;17.908;2022-09-30T08:25:24;2.70;;;2.50;;
12120;SDS011;6124;59.460;17.908;2022-09-30T08:27:52;2.50;;;2.07;;
12120;SDS011;6124;59.460;17.908;2022-09-30T08:30:20;4.27;;;2.50;;
12120;SDS011;6124;59.460;17.908;2022-09-30T08:32:47;2.90;;;2.60;;
12120;SDS011;6124;59.460;17.908;2022-09-30T08:35:15;4.03;;;2.57;;
12120;SDS011;6124;59.460;17.908;2022-09-30T08:37:42;3.13;;;2.40;;
12120;SDS011;6124;59.460;17.908;2022-09-30T08:40:13;2.63;;;2.40;;
12120;SDS011;6124;59.460;17.908;2022-09-30T08:42:49;3.50;;;2.60;;
12120;SDS011;6124;59.460;17.908;2022-09-30T08:45:24;3.30;;;2.27;;
12120;SDS011;6124;59.460;17.908;2022-09-30T08:47:58;3.07;;;2.07;;
12120;SDS011;6124;59.460;17.908;2022-09-30T08:50:29;2.60;;;2.20;;
12120;SDS011;6124;59.460;17.908;2022-09-30T08:53:01;5.13;;;2.37;;
12120;SDS011;6124;59.460;17.908;2022-09-30T08:55:32;5.37;;;2.30;;
12120;SDS011;6124;59.460;17.908;2022-09-30T08:58:02;4.53;;;2.20;;
12120;SDS011;6124;59.460;17.908;2022-09-30T09:00:31;3.43;;;2.40;;
12120;SDS011;6124;59.460;17.908;2022-09-30T09:02:59;3.90;;;2.40;;
12120;SDS011;6124;59.460;17.908;2022-09-30T09:05:31;4.03;;;2.20;;
12120;SDS011;6124;59.460;17.908;2022-09-30T09:08:03;4.80;;;2.30;;
12120;SDS011;6124;59.460;17.908;2022-09-30T09:10:36;2.57;;;2.07;;
12120;SDS011;6124;59.460;17.908;2022-09-30T09:13:11;3.30;;;2.10;;
12120;SDS011;6124;59.460;17.908;2022-09-30T09:15:48;2.00;;;1.80;;
12120;SDS011;6124;59.460;17.908;2022-09-30T09:21:10;5.80;;;2.10;;
12120;SDS011;6124;59.460;17.908;2022-09-30T09:23:40;2.87;;;2.20;;
12120;SDS011;6124;59.460;17.908;2022-09-30T09:26:08;3.10;;;2.20;;
12120;SDS011;6124;59.460;17.908;2022-09-30T09:28:39;2.43;;;2.00;;
12120;SDS011;6124;59.460;17.908;2022-09-30T09:31:10;6.53;;;2.10;;
12120;SDS011;6124;59.460;17.908;2022-09-30T09:33:41;2.63;;;2.10;;
12120;SDS011;6124;59.460;17.908;2022-09-30T09:36:15;2.27;;;2.07;;
12120;SDS011;6124;59.460;17.908;2022-09-30T09:38:51;2.20;;;1.80;;
12120;SDS011;6124;59.460;17.908;2022-09-30T09:41:24;3.43;;;2.23;;
12120;SDS011;6124;59.460;17.908;2022-09-30T09:43:59;2.10;;;1.90;;
12120;SDS011;6124;59.460;17.908;2022-09-30T09:46:29;2.10;;;1.90;;
12120;SDS011;6124;59.460;17.908;2022-09-30T09:51:44;2.73;;;1.97;;
12120;SDS011;6124;59.460;17.908;2022-09-30T09:54:13;2.27;;;1.70;;
12120;SDS011;6124;59.460;17.908;2022-09-30T09:56:43;3.00;;;1.80;;
12120;SDS011;6124;59.460;17.908;2022-09-30T09:59:12;2.10;;;1.80;;
12120;SDS011;6124;59.460;17.908;2022-09-30T10:01:41;3.07;;;1.80;;
12120;SDS011;6124;59.460;17.908;2022-09-30T10:04:09;1.73;;;1.50;;
12120;SDS011;6124;59.460;17.908;2022-09-30T10:09:26;3.67;;;2.10;;
12120;SDS011;6124;59.460;17.908;2022-09-30T10:14:46;3.83;;;1.97;;
12120;SDS011;6124;59.460;17.908;2022-09-30T10:17:17;2.63;;;1.90;;
12120;SDS011;6124;59.460;17.908;2022-09-30T10:19:47;3.10;;;2.10;;
12120;SDS011;6124;59.460;17.908;2022-09-30T10:22:18;3.13;;;2.00;;
12120;SDS011;6124;59.460;17.908;2022-09-30T10:24:46;2.47;;;1.90;;
12120;SDS011;6124;59.460;17.908;2022-09-30T10:27:24;2.73;;;2.03;;
12120;SDS011;6124;59.460;17.908;2022-09-30T10:29:54;3.10;;;1.90;;
12120;SDS011;6124;59.460;17.908;2022-09-30T10:32:21;5.23;;;1.90;;
12120;SDS011;6124;59.460;17.908;2022-09-30T10:34:53;2.10;;;1.90;;
12120;SDS011;6124;59.460;17.908;2022-09-30T10:37:21;4.00;;;2.20;;
12120;SDS011;6124;59.460;17.908;2022-09-30T10:39:51;4.17;;;2.00;;
12120;SDS011;6124;59.460;17.908;2022-09-30T10:42:21;2.00;;;1.80;;
12120;SDS011;6124;59.460;17.908;2022-09-30T10:44:51;2.00;;;1.90;;
12120;SDS011;6124;59.460;17.908;2022-09-30T10:47:21;3.40;;;2.00;;
12120;SDS011;6124;59.460;17.908;2022-09-30T10:49:49;2.17;;;1.97;;
12120;SDS011;6124;59.460;17.908;2022-09-30T10:52:18;3.03;;;1.93;;
12120;SDS011;6124;59.460;17.908;2022-09-30T10:54:47;1.73;;;1.63;;
12120;SDS011;6124;59.460;17.908;2022-09-30T10:57:15;2.67;;;1.80;;
12120;SDS011;6124;59.460;17.908;2022-09-30T10:59:44;2.33;;;1.60;;
12120;SDS011;6124;59.460;17.908;2022-09-30T11:02:16;2.23;;;1.73;;
12120;SDS011;6124;59.460;17.908;2022-09-30T11:04:47;2.10;;;1.90;;
12120;SDS011;6124;59.460;17.908;2022-09-30T11:07:20;2.23;;;2.03;;
12120;SDS011;6124;59.460;17.908;2022-09-30T11:09:51;1.97;;;1.70;;
12120;SDS011;6124;59.460;17.908;2022-09-30T11:12:22;4.50;;;1.80;;
12120;SDS011;6124;59.460;17.908;2022-09-30T11:14:54;1.90;;;1.80;;
12120;SDS011;6124;59.460;17.908;2022-09-30T11:17:28;1.83;;;1.73;;
12120;SDS011;6124;59.460;17.908;2022-09-30T11:20:02;2.43;;;1.90;;
12120;SDS011;6124;59.460;17.908;2022-09-30T11:22:38;3.07;;;1.87;;
12120;SDS011;6124;59.460;17.908;2022-09-30T11:25:08;2.13;;;1.93;;
12120;SDS011;6124;59.460;17.908;2022-09-30T11:27:41;3.73;;;2.00;;
12120;SDS011;6124;59.460;17.908;2022-09-30T11:30:11;2.40;;;2.20;;
12120;SDS011;6124;59.460;17.908;2022-09-30T11:32:52;2.10;;;1.90;;
12120;SDS011;6124;59.460;17.908;2022-09-30T11:35:26;2.30;;;1.83;;
12120;SDS011;6124;59.460;17.908;2022-09-30T11:38:06;2.33;;;2.13;;
12120;SDS011;6124;59.460;17.908;2022-09-30T11:40:36;2.07;;;1.80;;
12120;SDS011;6124;59.460;17.908;2022-09-30T11:43:06;2.00;;;1.77;;
12120;SDS011;6124;59.460;17.908;2022-09-30T11:45:38;1.90;;;1.80;;
12120;SDS011;6124;59.460;17.908;2022-09-30T11:48:15;2.50;;;1.90;;
12120;SDS011;6124;59.460;17.908;2022-09-30T11:50:47;2.10;;;1.80;;
12120;SDS011;6124;59.460;17.908;2022-09-30T11:53:20;2.13;;;1.93;;
12120;SDS011;6124;59.460;17.908;2022-09-30T11:55:59;1.90;;;1.77;;
12120;SDS011;6124;59.460;17.908;2022-09-30T11:58:28;2.40;;;2.00;;
12120;SDS011;6124;59.460;17.908;2022-09-30T12:00:59;2.33;;;2.00;;
12120;SDS011;6124;59.460;17.908;2022-09-30T12:03:28;2.10;;;1.77;;
12120;SDS011;6124;59.460;17.908;2022-09-30T12:05:57;2.27;;;2.07;;
12120;SDS011;6124;59.460;17.908;2022-09-30T12:08:28;3.53;;;2.10;;
12120;SDS011;6124;59.460;17.908;2022-09-30T12:10:56;3.70;;;2.10;;
12120;SDS011;6124;59.460;17.908;2022-09-30T12:13:26;2.47;;;2.27;;
12120;SDS011;6124;59.460;17.908;2022-09-30T12:15:56;2.57;;;1.80;;
12120;SDS011;6124;59.460;17.908;2022-09-30T12:18:24;2.30;;;2.10;;
12120;SDS011;6124;59.460;17.908;2022-09-30T12:20:54;2.20;;;2.00;;
12120;SDS011;6124;59.460;17.908;2022-09-30T12:23:26;2.23;;;2.03;;
12120;SDS011;6124;59.460;17.908;2022-09-30T12:25:54;2.20;;;2.00;;
12120;SDS011;6124;59.460;17.908;2022-09-30T12:28:23;2.10;;;1.83;;
12120;SDS011;6124;59.460;17.908;2022-09-30T12:31:13;2.30;;;1.97;;
12120;SDS011;6124;59.460;17.908;2022-09-30T12:33:48;3.73;;;2.00;;
12120;SDS011;6124;59.460;17.908;2022-09-30T12:36:25;2.33;;;1.70;;
12120;SDS011;6124;59.460;17.908;2022-09-30T12:39:20;2.57;;;1.80;;
12120;SDS011;6124;59.460;17.908;2022-09-30T12:41:59;2.37;;;1.97;;
12120;SDS011;6124;59.460;17.908;2022-09-30T12:44:38;2.50;;;1.83;;
12120;SDS011;6124;59.460;17.908;2022-09-30T12:47:10;2.10;;;1.63;;
12120;SDS011;6124;59.460;17.908;2022-09-30T12:49:40;1.80;;;1.70;;
12120;SDS011;6124;59.460;17.908;2022-09-30T12:52:10;1.97;;;1.87;;
12120;SDS011;6124;59.460;17.908;2022-09-30T12:54:41;3.00;;;1.70;;
12120;SDS011;6124;59.460;17.908;2022-09-30T12:57:10;1.70;;;1.60;;
12120;SDS011;6124;59.460;17.908;2022-09-30T12:59:38;3.57;;;1.80;;
12120;SDS011;6124;59.460;17.908;2022-09-30T13:02:20;2.13;;;1.90;;
12120;SDS011;6124;59.460;17.908;2022-09-30T13:04:52;3.33;;;2.10;;
12120;SDS011;6124;59.460;17.908;2022-09-30T13:07:20;1.90;;;1.60;;
12120;SDS011;6124;59.460;17.908;2022-09-30T13:10:15;3.47;;;1.60;;
12120;SDS011;6124;59.460;17.908;2022-09-30T13:12:48;2.03;;;1.83;;
12120;SDS011;6124;59.460;17.908;2022-09-30T13:15:41;2.23;;;1.90;;
12120;SDS011;6124;59.460;17.908;2022-09-30T13:20:55;1.90;;;1.67;;
12120;SDS011;6124;59.460;17.908;2022-09-30T13:23:34;3.00;;;1.70;;
12120;SDS011;6124;59.460;17.908;2022-09-30T13:26:02;1.70;;;1.60;;
12120;SDS011;6124;59.460;17.908;2022-09-30T13:28:36;2.50;;;1.57;;
12120;SDS011;6124;59.460;17.908;2022-09-30T13:31:13;1.87;;;1.57;;
12120;SDS011;6124;59.460;17.908;2022-09-30T13:34:04;2.03;;;1.70;;
12120;SDS011;6124;59.460;17.908;2022-09-30T13:36:39;1.70;;;1.60;;
12120;SDS011;6124;59.460;17.908;2022-09-30T13:39:16;2.47;;;1.63;;
12120;SDS011;6124;59.460;17.908;2022-09-30T13:41:44;1.57;;;1.47;;
12120;SDS011;6124;59.460;17.908;2022-09-30T13:44:13;3.67;;;1.60;;
12120;SDS011;6124;59.460;17.908;2022-09-30T13:46:44;1.83;;;1.60;;
12120;SDS011;6124;59.460;17.908;2022-09-30T13:49:15;2.90;;;1.70;;
12120;SDS011;6124;59.460;17.908;2022-09-30T13:51:44;1.80;;;1.70;;
12120;SDS011;6124;59.460;17.908;2022-09-30T13:54:14;1.97;;;1.47;;
12120;SDS011;6124;59.460;17.908;2022-09-30T13:56:44;1.70;;;1.60;;
12120;SDS011;6124;59.460;17.908;2022-09-30T13:59:16;2.27;;;2.00;;
12120;SDS011;6124;59.460;17.908;2022-09-30T14:01:49;2.23;;;2.03;;
12120;SDS011;6124;59.460;17.908;2022-09-30T14:07:26;1.83;;;1.70;;
12120;SDS011;6124;59.460;17.908;2022-09-30T14:09:59;3.60;;;1.73;;
12120;SDS011;6124;59.460;17.908;2022-09-30T14:12:33;2.90;;;1.70;;
12120;SDS011;6124;59.460;17.908;2022-09-30T14:15:10;1.67;;;1.57;;
12120;SDS011;6124;59.460;17.908;2022-09-30T14:17:46;2.53;;;1.33;;
12120;SDS011;6124;59.460;17.908;2022-09-30T14:20:21;3.17;;;1.60;;
12120;SDS011;6124;59.460;17.908;2022-09-30T14:22:54;2.00;;;1.70;;
12120;SDS011;6124;59.460;17.908;2022-09-30T14:25:21;2.60;;;1.90;;
12120;SDS011;6124;59.460;17.908;2022-09-30T14:27:54;1.93;;;1.57;;
12120;SDS011;6124;59.460;17.908;2022-09-30T14:30:24;1.90;;;1.67;;
12120;SDS011;6124;59.460;17.908;2022-09-30T14:32:52;2.57;;;1.50;;
12120;SDS011;6124;59.460;17.908;2022-09-30T14:35:22;2.10;;;1.90;;
12120;SDS011;6124;59.460;17.908;2022-09-30T14:37:54;1.87;;;1.70;;
12120;SDS011;6124;59.460;17.908;2022-09-30T14:40:23;2.70;;;1.87;;
12120;SDS011;6124;59.460;17.908;2022-09-30T14:42:50;1.90;;;1.70;;
12120;SDS011;6124;59.460;17.908;2022-09-30T14:45:20;2.60;;;1.73;;
12120;SDS011;6124;59.460;17.908;2022-09-30T14:47:51;2.90;;;2.17;;
12120;SDS011;6124;59.460;17.908;2022-09-30T14:50:20;2.10;;;1.90;;
12120;SDS011;6124;59.460;17.908;2022-09-30T14:52:50;2.13;;;1.63;;
12120;SDS011;6124;59.460;17.908;2022-09-30T14:55:23;2.63;;;1.87;;
12120;SDS011;6124;59.460;17.908;2022-09-30T14:57:51;2.57;;;1.87;;
12120;SDS011;6124;59.460;17.908;2022-09-30T15:00:30;2.43;;;1.70;;
12120;SDS011;6124;59.460;17.908;2022-09-30T15:03:00;2.00;;;1.80;;
12120;SDS011;6124;59.460;17.908;2022-09-30T15:05:27;2.83;;;1.80;;
12120;SDS011;6124;59.460;17.908;2022-09-30T15:07:54;2.27;;;1.70;;
12120;SDS011;6124;59.460;17.908;2022-09-30T15:10:23;4.17;;;1.83;;
12120;SDS011;6124;59.460;17.908;2022-09-30T15:12:51;2.17;;;1.77;;
12120;SDS011;6124;59.460;17.908;2022-09-30T15:15:24;3.13;;;1.77;;
12120;SDS011;6124;59.460;17.908;2022-09-30T15:17:52;2.70;;;1.77;;
12120;SDS011;6124;59.460;17.908;2022-09-30T15:20:23;2.00;;;1.80;;
12120;SDS011;6124;59.460;17.908;2022-09-30T15:22:52;2.53;;;1.90;;
12120;SDS011;6124;59.460;17.908;2022-09-30T15:25:20;2.00;;;1.90;;
12120;SDS011;6124;59.460;17.908;2022-09-30T15:27:49;1.97;;;1.77;;
12120;SDS011;6124;59.460;17.908;2022-09-30T15:30:23;2.53;;;2.10;;